sensor_id;sensor_type;location;lat;lon;timestamp;P1;durP1;ratioP1;P2;durP2;ratioP2
77822;SDS011;67013;49.730;17.292;2024-01-30T00:01:11;1.00;;;0.70;;
77822;SDS011;67013;49.730;17.292;2024-01-30T00:03:40;1.00;;;0.70;;
77822;SDS011;67013;49.730;17.292;2024-01-30T00:06:10;0.80;;;0.60;;
77822;SDS011;67013;49.730;17.292;2024-01-30T00:08:40;0.60;;;0.50;;
77822;SDS011;67013;49.730;17.292;2024-01-30T00:13:41;1.20;;;0.70;;
77822;SDS011;67013;49.730;17.292;2024-01-30T00:16:19;0.80;;;0.60;;
77822;SDS011;67013;49.730;17.292;2024-01-30T00:18:50;0.70;;;0.50;;
77822;SDS011;67013;49.730;17.292;2024-01-30T00:21:20;0.60;;;0.50;;
77822;SDS011;67013;49.730;17.292;2024-01-30T00:23:50;1.30;;;0.80;;
77822;SDS011;67013;49.730;17.292;2024-01-30T00:26:19;0.70;;;0.50;;
77822;SDS011;67013;49.730;17.292;2024-01-30T00:28:49;0.80;;;0.70;;
77822;SDS011;67013;49.730;17.292;2024-01-30T00:31:18;0.70;;;0.60;;
77822;SDS011;67013;49.730;17.292;2024-01-30T00:33:48;0.90;;;0.60;;
77822;SDS011;67013;49.730;17.292;2024-01-30T00:36:17;0.80;;;0.70;;
77822;SDS011;67013;49.730;17.292;2024-01-30T00:38:46;0.50;;;0.50;;
77822;SDS011;67013;49.730;17.292;2024-01-30T00:41:18;0.70;;;0.60;;
77822;SDS011;67013;49.730;17.292;2024-01-30T00:43:48;1.10;;;1.00;;
77822;SDS011;67013;49.730;17.292;2024-01-30T00:46:18;0.70;;;0.60;;
77822;SDS011;67013;49.730;17.292;2024-01-30T00:48:47;0.70;;;0.60;;
77822;SDS011;67013;49.730;17.292;2024-01-30T00:51:17;0.80;;;0.60;;
77822;SDS011;67013;49.730;17.292;2024-01-30T00:53:46;1.20;;;0.80;;
77822;SDS011;67013;49.730;17.292;2024-01-30T00:56:16;0.50;;;0.50;;
77822;SDS011;67013;49.730;17.292;2024-01-30T00:58:46;0.50;;;0.50;;
77822;SDS011;67013;49.730;17.292;2024-01-30T01:01:16;0.70;;;0.50;;
77822;SDS011;67013;49.730;17.292;2024-01-30T01:03:45;0.90;;;0.60;;
77822;SDS011;67013;49.730;17.292;2024-01-30T01:06:15;0.50;;;0.50;;
77822;SDS011;67013;49.730;17.292;2024-01-30T01:08:44;0.80;;;0.60;;
77822;SDS011;67013;49.730;17.292;2024-01-30T01:11:14;0.50;;;0.50;;
77822;SDS011;67013;49.730;17.292;2024-01-30T01:13:44;1.00;;;0.70;;
77822;SDS011;67013;49.730;17.292;2024-01-30T01:16:13;0.60;;;0.60;;
77822;SDS011;67013;49.730;17.292;2024-01-30T01:18:43;0.90;;;0.80;;
77822;SDS011;67013;49.730;17.292;2024-01-30T01:21:12;0.80;;;0.60;;
77822;SDS011;67013;49.730;17.292;2024-01-30T01:23:42;0.90;;;0.70;;
77822;SDS011;67013;49.730;17.292;2024-01-30T01:26:11;0.80;;;0.70;;
77822;SDS011;67013;49.730;17.292;2024-01-30T01:28:41;0.80;;;0.60;;
77822;SDS011;67013;49.730;17.292;2024-01-30T01:31:11;0.80;;;0.60;;
77822;SDS011;67013;49.730;17.292;2024-01-30T01:33:40;0.70;;;0.40;;
77822;SDS011;67013;49.730;17.292;2024-01-30T01:36:10;0.70;;;0.60;;
77822;SDS011;67013;49.730;17.292;2024-01-30T01:38:41;1.00;;;0.70;;
77822;SDS011;67013;49.730;17.292;2024-01-30T01:41:10;1.00;;;0.70;;
77822;SDS011;67013;49.730;17.292;2024-01-30T01:43:39;1.00;;;0.70;;
77822;SDS011;67013;49.730;17.292;2024-01-30T01:46:09;0.70;;;0.50;;
77822;SDS011;67013;49.730;17.292;2024-01-30T01:48:39;0.80;;;0.60;;
77822;SDS011;67013;49.730;17.292;2024-01-30T01:51:09;0.70;;;0.50;;
77822;SDS011;67013;49.730;17.292;2024-01-30T01:53:39;0.90;;;0.70;;
77822;SDS011;67013;49.730;17.292;2024-01-30T01:56:09;0.80;;;0.60;;
77822;SDS011;67013;49.730;17.292;2024-01-30T01:58:39;0.90;;;0.70;;
77822;SDS011;67013;49.730;17.292;2024-01-30T02:01:09;0.90;;;0.80;;
77822;SDS011;67013;49.730;17.292;2024-01-30T02:03:41;0.90;;;0.70;;
77822;SDS011;67013;49.730;17.292;2024-01-30T02:06:11;0.90;;;0.60;;
77822;SDS011;67013;49.730;17.292;2024-01-30T02:08:41;1.00;;;0.70;;
77822;SDS011;67013;49.730;17.292;2024-01-30T02:11:11;0.90;;;0.70;;
77822;SDS011;67013;49.730;17.292;2024-01-30T02:13:42;0.80;;;0.60;;
77822;SDS011;67013;49.730;17.292;2024-01-30T02:16:11;0.90;;;0.80;;
77822;SDS011;67013;49.730;17.292;2024-01-30T02:18:41;0.80;;;0.70;;
77822;SDS011;67013;49.730;17.292;2024-01-30T02:21:13;0.60;;;0.60;;
77822;SDS011;67013;49.730;17.292;2024-01-30T02:23:44;0.80;;;0.60;;
77822;SDS011;67013;49.730;17.292;2024-01-30T02:26:16;0.50;;;0.50;;
77822;SDS011;67013;49.730;17.292;2024-01-30T02:28:45;0.60;;;0.50;;
77822;SDS011;67013;49.730;17.292;2024-01-30T02:31:15;0.60;;;0.50;;
77822;SDS011;67013;49.730;17.292;2024-01-30T02:33:44;0.80;;;0.60;;
77822;SDS011;67013;49.730;17.292;2024-01-30T02:36:13;1.10;;;0.90;;
77822;SDS011;67013;49.730;17.292;2024-01-30T02:38:43;0.60;;;0.60;;
77822;SDS011;67013;49.730;17.292;2024-01-30T02:41:13;0.90;;;0.70;;
77822;SDS011;67013;49.730;17.292;2024-01-30T02:43:42;0.90;;;0.60;;
77822;SDS011;67013;49.730;17.292;2024-01-30T02:46:11;0.80;;;0.60;;
77822;SDS011;67013;49.730;17.292;2024-01-30T02:48:41;0.80;;;0.60;;
77822;SDS011;67013;49.730;17.292;2024-01-30T02:51:10;0.70;;;0.70;;
77822;SDS011;67013;49.730;17.292;2024-01-30T02:53:40;0.80;;;0.70;;
77822;SDS011;67013;49.730;17.292;2024-01-30T02:56:09;1.00;;;0.80;;
77822;SDS011;67013;49.730;17.292;2024-01-30T02:58:40;0.90;;;0.60;;
77822;SDS011;67013;49.730;17.292;2024-01-30T03:01:09;0.90;;;0.60;;
77822;SDS011;67013;49.730;17.292;2024-01-30T03:03:39;1.20;;;1.10;;
77822;SDS011;67013;49.730;17.292;2024-01-30T03:06:09;0.70;;;0.50;;
77822;SDS011;67013;49.730;17.292;2024-01-30T03:08:39;0.80;;;0.60;;
77822;SDS011;67013;49.730;17.292;2024-01-30T03:11:08;0.80;;;0.70;;
77822;SDS011;67013;49.730;17.292;2024-01-30T03:13:38;0.80;;;0.60;;
77822;SDS011;67013;49.730;17.292;2024-01-30T03:16:08;0.80;;;0.80;;
77822;SDS011;67013;49.730;17.292;2024-01-30T03:18:37;1.00;;;0.70;;
77822;SDS011;67013;49.730;17.292;2024-01-30T03:21:06;1.20;;;0.70;;
77822;SDS011;67013;49.730;17.292;2024-01-30T03:23:36;0.80;;;0.70;;
77822;SDS011;67013;49.730;17.292;2024-01-30T03:26:05;0.70;;;0.60;;
77822;SDS011;67013;49.730;17.292;2024-01-30T03:28:35;1.20;;;0.80;;
77822;SDS011;67013;49.730;17.292;2024-01-30T03:31:05;1.20;;;0.80;;
77822;SDS011;67013;49.730;17.292;2024-01-30T03:33:34;1.00;;;0.70;;
77822;SDS011;67013;49.730;17.292;2024-01-30T03:36:06;1.00;;;0.60;;
77822;SDS011;67013;49.730;17.292;2024-01-30T03:38:36;0.80;;;0.60;;
77822;SDS011;67013;49.730;17.292;2024-01-30T03:41:08;0.70;;;0.60;;
77822;SDS011;67013;49.730;17.292;2024-01-30T03:43:38;0.70;;;0.60;;
77822;SDS011;67013;49.730;17.292;2024-01-30T03:46:08;1.00;;;0.60;;
77822;SDS011;67013;49.730;17.292;2024-01-30T03:48:39;0.60;;;0.50;;
77822;SDS011;67013;49.730;17.292;2024-01-30T03:51:08;0.80;;;0.70;;
77822;SDS011;67013;49.730;17.292;2024-01-30T03:53:41;0.70;;;0.50;;
77822;SDS011;67013;49.730;17.292;2024-01-30T03:56:12;1.00;;;0.70;;
77822;SDS011;67013;49.730;17.292;2024-01-30T03:58:42;0.60;;;0.50;;
77822;SDS011;67013;49.730;17.292;2024-01-30T04:01:14;0.80;;;0.60;;
77822;SDS011;67013;49.730;17.292;2024-01-30T04:03:43;1.00;;;0.60;;
77822;SDS011;67013;49.730;17.292;2024-01-30T04:06:13;0.60;;;0.50;;
77822;SDS011;67013;49.730;17.292;2024-01-30T04:08:42;0.80;;;0.70;;
77822;SDS011;67013;49.730;17.292;2024-01-30T04:11:12;0.70;;;0.60;;
77822;SDS011;67013;49.730;17.292;2024-01-30T04:13:41;0.90;;;0.60;;
77822;SDS011;67013;49.730;17.292;2024-01-30T04:16:20;0.70;;;0.60;;
77822;SDS011;67013;49.730;17.292;2024-01-30T04:18:51;0.70;;;0.60;;
77822;SDS011;67013;49.730;17.292;2024-01-30T04:21:21;0.90;;;0.70;;
77822;SDS011;67013;49.730;17.292;2024-01-30T04:23:51;1.20;;;0.80;;
77822;SDS011;67013;49.730;17.292;2024-01-30T04:26:21;0.70;;;0.50;;
77822;SDS011;67013;49.730;17.292;2024-01-30T04:28:50;0.90;;;0.60;;
77822;SDS011;67013;49.730;17.292;2024-01-30T04:31:20;0.80;;;0.60;;
77822;SDS011;67013;49.730;17.292;2024-01-30T04:33:49;0.80;;;0.60;;
77822;SDS011;67013;49.730;17.292;2024-01-30T04:36:18;0.70;;;0.60;;
77822;SDS011;67013;49.730;17.292;2024-01-30T04:38:48;0.70;;;0.50;;
77822;SDS011;67013;49.730;17.292;2024-01-30T04:41:17;0.60;;;0.60;;
77822;SDS011;67013;49.730;17.292;2024-01-30T04:43:47;0.50;;;0.50;;
77822;SDS011;67013;49.730;17.292;2024-01-30T04:46:16;0.80;;;0.50;;
77822;SDS011;67013;49.730;17.292;2024-01-30T04:48:45;0.50;;;0.50;;
77822;SDS011;67013;49.730;17.292;2024-01-30T04:51:15;0.50;;;0.50;;
77822;SDS011;67013;49.730;17.292;2024-01-30T04:53:44;0.80;;;0.70;;
77822;SDS011;67013;49.730;17.292;2024-01-30T04:56:14;0.70;;;0.60;;
77822;SDS011;67013;49.730;17.292;2024-01-30T04:58:43;0.90;;;0.70;;
77822;SDS011;67013;49.730;17.292;2024-01-30T05:01:16;0.80;;;0.60;;
77822;SDS011;67013;49.730;17.292;2024-01-30T05:03:45;0.60;;;0.50;;
77822;SDS011;67013;49.730;17.292;2024-01-30T05:06:24;0.80;;;0.60;;
77822;SDS011;67013;49.730;17.292;2024-01-30T05:08:54;0.80;;;0.60;;
77822;SDS011;67013;49.730;17.292;2024-01-30T05:11:23;0.80;;;0.60;;
77822;SDS011;67013;49.730;17.292;2024-01-30T05:13:53;0.90;;;0.70;;
77822;SDS011;67013;49.730;17.292;2024-01-30T05:16:22;0.60;;;0.60;;
77822;SDS011;67013;49.730;17.292;2024-01-30T05:18:51;0.90;;;0.60;;
77822;SDS011;67013;49.730;17.292;2024-01-30T05:21:21;0.80;;;0.70;;
77822;SDS011;67013;49.730;17.292;2024-01-30T05:23:50;0.90;;;0.60;;
77822;SDS011;67013;49.730;17.292;2024-01-30T05:26:20;0.90;;;0.70;;
77822;SDS011;67013;49.730;17.292;2024-01-30T05:28:50;0.80;;;0.60;;
77822;SDS011;67013;49.730;17.292;2024-01-30T05:31:19;0.80;;;0.70;;
77822;SDS011;67013;49.730;17.292;2024-01-30T05:33:49;0.90;;;0.70;;
77822;SDS011;67013;49.730;17.292;2024-01-30T05:36:18;0.70;;;0.60;;
77822;SDS011;67013;49.730;17.292;2024-01-30T05:38:48;1.10;;;0.80;;
77822;SDS011;67013;49.730;17.292;2024-01-30T05:41:17;0.50;;;0.50;;
77822;SDS011;67013;49.730;17.292;2024-01-30T05:43:48;0.80;;;0.60;;
77822;SDS011;67013;49.730;17.292;2024-01-30T05:46:18;1.00;;;0.70;;
77822;SDS011;67013;49.730;17.292;2024-01-30T05:48:47;0.90;;;0.80;;
77822;SDS011;67013;49.730;17.292;2024-01-30T05:51:16;0.70;;;0.50;;
77822;SDS011;67013;49.730;17.292;2024-01-30T05:53:46;1.10;;;0.70;;
77822;SDS011;67013;49.730;17.292;2024-01-30T05:56:16;0.90;;;0.80;;
77822;SDS011;67013;49.730;17.292;2024-01-30T05:58:45;0.90;;;0.70;;
77822;SDS011;67013;49.730;17.292;2024-01-30T06:01:16;0.90;;;0.70;;
77822;SDS011;67013;49.730;17.292;2024-01-30T06:03:46;0.90;;;0.60;;
77822;SDS011;67013;49.730;17.292;2024-01-30T06:06:16;0.70;;;0.50;;
77822;SDS011;67013;49.730;17.292;2024-01-30T06:08:45;1.20;;;0.90;;
77822;SDS011;67013;49.730;17.292;2024-01-30T06:11:15;0.90;;;0.70;;
77822;SDS011;67013;49.730;17.292;2024-01-30T06:13:44;1.30;;;1.10;;
77822;SDS011;67013;49.730;17.292;2024-01-30T06:16:14;0.80;;;0.60;;
77822;SDS011;67013;49.730;17.292;2024-01-30T06:18:43;0.60;;;0.60;;
77822;SDS011;67013;49.730;17.292;2024-01-30T06:21:13;0.60;;;0.60;;
77822;SDS011;67013;49.730;17.292;2024-01-30T06:23:43;1.10;;;1.00;;
77822;SDS011;67013;49.730;17.292;2024-01-30T06:26:12;1.00;;;0.70;;
77822;SDS011;67013;49.730;17.292;2024-01-30T06:28:41;0.90;;;0.60;;
77822;SDS011;67013;49.730;17.292;2024-01-30T06:31:11;0.70;;;0.70;;
77822;SDS011;67013;49.730;17.292;2024-01-30T06:33:41;0.90;;;0.60;;
77822;SDS011;67013;49.730;17.292;2024-01-30T06:36:10;0.90;;;0.60;;
77822;SDS011;67013;49.730;17.292;2024-01-30T06:38:40;0.70;;;0.60;;
77822;SDS011;67013;49.730;17.292;2024-01-30T06:41:10;0.80;;;0.60;;
77822;SDS011;67013;49.730;17.292;2024-01-30T06:43:39;1.00;;;0.80;;
77822;SDS011;67013;49.730;17.292;2024-01-30T06:46:11;0.90;;;0.70;;
77822;SDS011;67013;49.730;17.292;2024-01-30T06:48:41;0.90;;;0.60;;
77822;SDS011;67013;49.730;17.292;2024-01-30T06:51:11;0.90;;;0.50;;
77822;SDS011;67013;49.730;17.292;2024-01-30T06:53:40;0.70;;;0.70;;
77822;SDS011;67013;49.730;17.292;2024-01-30T06:56:10;0.60;;;0.50;;
77822;SDS011;67013;49.730;17.292;2024-01-30T06:58:40;0.80;;;0.60;;
77822;SDS011;67013;49.730;17.292;2024-01-30T07:01:09;0.60;;;0.50;;
77822;SDS011;67013;49.730;17.292;2024-01-30T07:03:38;0.70;;;0.60;;
77822;SDS011;67013;49.730;17.292;2024-01-30T07:06:08;0.90;;;0.70;;
77822;SDS011;67013;49.730;17.292;2024-01-30T07:08:38;0.70;;;0.60;;
77822;SDS011;67013;49.730;17.292;2024-01-30T07:11:07;0.90;;;0.80;;
77822;SDS011;67013;49.730;17.292;2024-01-30T07:13:38;0.60;;;0.50;;
77822;SDS011;67013;49.730;17.292;2024-01-30T07:16:08;0.80;;;0.60;;
77822;SDS011;67013;49.730;17.292;2024-01-30T07:18:38;0.90;;;0.60;;
77822;SDS011;67013;49.730;17.292;2024-01-30T07:21:07;1.00;;;0.60;;
77822;SDS011;67013;49.730;17.292;2024-01-30T07:23:37;0.70;;;0.50;;
77822;SDS011;67013;49.730;17.292;2024-01-30T07:26:07;0.80;;;0.60;;
77822;SDS011;67013;49.730;17.292;2024-01-30T07:28:37;0.60;;;0.60;;
77822;SDS011;67013;49.730;17.292;2024-01-30T07:31:06;0.70;;;0.50;;
77822;SDS011;67013;49.730;17.292;2024-01-30T07:33:36;0.70;;;0.50;;
77822;SDS011;67013;49.730;17.292;2024-01-30T07:36:06;0.80;;;0.80;;
77822;SDS011;67013;49.730;17.292;2024-01-30T07:38:37;0.30;;;0.30;;
77822;SDS011;67013;49.730;17.292;2024-01-30T07:41:07;0.60;;;0.60;;
77822;SDS011;67013;49.730;17.292;2024-01-30T07:43:37;0.60;;;0.60;;
77822;SDS011;67013;49.730;17.292;2024-01-30T07:46:07;0.80;;;0.60;;
77822;SDS011;67013;49.730;17.292;2024-01-30T07:48:36;1.00;;;0.70;;
77822;SDS011;67013;49.730;17.292;2024-01-30T07:51:06;0.40;;;0.40;;
77822;SDS011;67013;49.730;17.292;2024-01-30T07:53:36;0.70;;;0.50;;
77822;SDS011;67013;49.730;17.292;2024-01-30T07:56:06;0.60;;;0.60;;
77822;SDS011;67013;49.730;17.292;2024-01-30T07:58:36;0.50;;;0.50;;
77822;SDS011;67013;49.730;17.292;2024-01-30T08:01:06;0.70;;;0.70;;
77822;SDS011;67013;49.730;17.292;2024-01-30T08:03:35;0.50;;;0.50;;
77822;SDS011;67013;49.730;17.292;2024-01-30T08:06:07;0.40;;;0.40;;
77822;SDS011;67013;49.730;17.292;2024-01-30T08:08:37;0.50;;;0.50;;
77822;SDS011;67013;49.730;17.292;2024-01-30T08:11:06;0.60;;;0.50;;
77822;SDS011;67013;49.730;17.292;2024-01-30T08:13:35;0.40;;;0.40;;
77822;SDS011;67013;49.730;17.292;2024-01-30T08:16:06;0.80;;;0.60;;
77822;SDS011;67013;49.730;17.292;2024-01-30T08:18:36;0.40;;;0.40;;
77822;SDS011;67013;49.730;17.292;2024-01-30T08:21:06;0.70;;;0.50;;
77822;SDS011;67013;49.730;17.292;2024-01-30T08:23:35;0.70;;;0.70;;
77822;SDS011;67013;49.730;17.292;2024-01-30T08:26:05;0.40;;;0.40;;
77822;SDS011;67013;49.730;17.292;2024-01-30T08:28:35;0.50;;;0.50;;
77822;SDS011;67013;49.730;17.292;2024-01-30T08:31:04;0.50;;;0.50;;
77822;SDS011;67013;49.730;17.292;2024-01-30T08:33:34;0.50;;;0.50;;
77822;SDS011;67013;49.730;17.292;2024-01-30T08:36:03;0.40;;;0.40;;
77822;SDS011;67013;49.730;17.292;2024-01-30T08:38:34;0.30;;;0.30;;
77822;SDS011;67013;49.730;17.292;2024-01-30T08:41:03;0.50;;;0.50;;
77822;SDS011;67013;49.730;17.292;2024-01-30T08:43:33;0.40;;;0.40;;
77822;SDS011;67013;49.730;17.292;2024-01-30T08:46:03;0.40;;;0.40;;
77822;SDS011;67013;49.730;17.292;2024-01-30T08:48:32;0.50;;;0.50;;
77822;SDS011;67013;49.730;17.292;2024-01-30T08:51:03;0.50;;;0.50;;
77822;SDS011;67013;49.730;17.292;2024-01-30T08:53:35;0.30;;;0.30;;
77822;SDS011;67013;49.730;17.292;2024-01-30T08:56:05;0.50;;;0.50;;
77822;SDS011;67013;49.730;17.292;2024-01-30T08:58:35;0.40;;;0.40;;
77822;SDS011;67013;49.730;17.292;2024-01-30T09:01:05;0.50;;;0.40;;
77822;SDS011;67013;49.730;17.292;2024-01-30T09:03:34;0.60;;;0.50;;
77822;SDS011;67013;49.730;17.292;2024-01-30T09:06:09;0.30;;;0.30;;
77822;SDS011;67013;49.730;17.292;2024-01-30T09:08:39;0.30;;;0.30;;
77822;SDS011;67013;49.730;17.292;2024-01-30T09:11:11;0.30;;;0.30;;
77822;SDS011;67013;49.730;17.292;2024-01-30T09:13:43;0.40;;;0.40;;
77822;SDS011;67013;49.730;17.292;2024-01-30T09:16:12;0.40;;;0.40;;
77822;SDS011;67013;49.730;17.292;2024-01-30T09:18:42;0.30;;;0.30;;
77822;SDS011;67013;49.730;17.292;2024-01-30T09:21:12;0.40;;;0.40;;
77822;SDS011;67013;49.730;17.292;2024-01-30T09:23:41;0.40;;;0.40;;
77822;SDS011;67013;49.730;17.292;2024-01-30T09:26:10;0.50;;;0.50;;
77822;SDS011;67013;49.730;17.292;2024-01-30T09:28:40;0.40;;;0.40;;
77822;SDS011;67013;49.730;17.292;2024-01-30T09:31:10;0.40;;;0.40;;
77822;SDS011;67013;49.730;17.292;2024-01-30T09:33:40;0.50;;;0.50;;
77822;SDS011;67013;49.730;17.292;2024-01-30T09:36:10;0.40;;;0.40;;
77822;SDS011;67013;49.730;17.292;2024-01-30T09:38:41;0.30;;;0.30;;
77822;SDS011;67013;49.730;17.292;2024-01-30T09:41:11;0.40;;;0.40;;
77822;SDS011;67013;49.730;17.292;2024-01-30T09:43:40;0.40;;;0.40;;
77822;SDS011;67013;49.730;17.292;2024-01-30T09:46:16;0.30;;;0.30;;
77822;SDS011;67013;49.730;17.292;2024-01-30T09:48:48;0.40;;;0.40;;
77822;SDS011;67013;49.730;17.292;2024-01-30T09:51:18;0.40;;;0.40;;
77822;SDS011;67013;49.730;17.292;2024-01-30T09:53:48;0.40;;;0.40;;
77822;SDS011;67013;49.730;17.292;2024-01-30T09:56:18;0.40;;;0.40;;
77822;SDS011;67013;49.730;17.292;2024-01-30T09:58:48;0.30;;;0.30;;
77822;SDS011;67013;49.730;17.292;2024-01-30T10:01:18;0.40;;;0.40;;
77822;SDS011;67013;49.730;17.292;2024-01-30T10:03:50;0.20;;;0.20;;
77822;SDS011;67013;49.730;17.292;2024-01-30T10:06:20;0.20;;;0.20;;
77822;SDS011;67013;49.730;17.292;2024-01-30T10:08:50;0.40;;;0.40;;
77822;SDS011;67013;49.730;17.292;2024-01-30T10:11:19;0.40;;;0.40;;
77822;SDS011;67013;49.730;17.292;2024-01-30T10:13:49;0.20;;;0.20;;
77822;SDS011;67013;49.730;17.292;2024-01-30T10:16:19;0.30;;;0.30;;
77822;SDS011;67013;49.730;17.292;2024-01-30T10:18:48;0.40;;;0.40;;
77822;SDS011;67013;49.730;17.292;2024-01-30T10:21:18;0.30;;;0.30;;
77822;SDS011;67013;49.730;17.292;2024-01-30T10:23:48;0.40;;;0.40;;
77822;SDS011;67013;49.730;17.292;2024-01-30T10:26:18;0.30;;;0.30;;
77822;SDS011;67013;49.730;17.292;2024-01-30T10:28:49;0.40;;;0.40;;
77822;SDS011;67013;49.730;17.292;2024-01-30T10:31:18;0.40;;;0.40;;
77822;SDS011;67013;49.730;17.292;2024-01-30T10:33:48;0.40;;;0.40;;
77822;SDS011;67013;49.730;17.292;2024-01-30T10:36:17;0.30;;;0.30;;
77822;SDS011;67013;49.730;17.292;2024-01-30T10:38:49;0.40;;;0.40;;
77822;SDS011;67013;49.730;17.292;2024-01-30T10:41:24;0.40;;;0.40;;
77822;SDS011;67013;49.730;17.292;2024-01-30T10:44:02;0.30;;;0.30;;
77822;SDS011;67013;49.730;17.292;2024-01-30T10:46:37;0.40;;;0.40;;
77822;SDS011;67013;49.730;17.292;2024-01-30T10:49:10;0.30;;;0.30;;
77822;SDS011;67013;49.730;17.292;2024-01-30T10:51:41;0.30;;;0.30;;
77822;SDS011;67013;49.730;17.292;2024-01-30T10:54:11;0.30;;;0.30;;
77822;SDS011;67013;49.730;17.292;2024-01-30T10:56:43;0.30;;;0.30;;
77822;SDS011;67013;49.730;17.292;2024-01-30T10:59:13;0.40;;;0.40;;
77822;SDS011;67013;49.730;17.292;2024-01-30T11:01:43;0.40;;;0.40;;
77822;SDS011;67013;49.730;17.292;2024-01-30T11:04:13;0.40;;;0.40;;
77822;SDS011;67013;49.730;17.292;2024-01-30T11:06:43;0.30;;;0.30;;
77822;SDS011;67013;49.730;17.292;2024-01-30T11:09:13;0.40;;;0.40;;
77822;SDS011;67013;49.730;17.292;2024-01-30T11:11:50;0.30;;;0.30;;
77822;SDS011;67013;49.730;17.292;2024-01-30T11:14:26;0.30;;;0.30;;
77822;SDS011;67013;49.730;17.292;2024-01-30T11:16:58;0.30;;;0.30;;
77822;SDS011;67013;49.730;17.292;2024-01-30T11:19:30;0.30;;;0.30;;
77822;SDS011;67013;49.730;17.292;2024-01-30T11:22:00;0.40;;;0.40;;
77822;SDS011;67013;49.730;17.292;2024-01-30T11:24:31;0.30;;;0.30;;
77822;SDS011;67013;49.730;17.292;2024-01-30T11:29:37;0.30;;;0.30;;
77822;SDS011;67013;49.730;17.292;2024-01-30T11:32:07;0.50;;;0.40;;
77822;SDS011;67013;49.730;17.292;2024-01-30T11:34:37;0.30;;;0.30;;
77822;SDS011;67013;49.730;17.292;2024-01-30T11:37:10;0.40;;;0.40;;
77822;SDS011;67013;49.730;17.292;2024-01-30T11:39:42;0.40;;;0.40;;
77822;SDS011;67013;49.730;17.292;2024-01-30T11:42:12;0.30;;;0.30;;
77822;SDS011;67013;49.730;17.292;2024-01-30T11:44:45;0.30;;;0.30;;
77822;SDS011;67013;49.730;17.292;2024-01-30T11:47:15;0.40;;;0.40;;
77822;SDS011;67013;49.730;17.292;2024-01-30T11:49:45;0.40;;;0.40;;
77822;SDS011;67013;49.730;17.292;2024-01-30T11:52:15;0.40;;;0.40;;
77822;SDS011;67013;49.730;17.292;2024-01-30T11:54:45;0.50;;;0.50;;
77822;SDS011;67013;49.730;17.292;2024-01-30T11:57:14;0.30;;;0.30;;
77822;SDS011;67013;49.730;17.292;2024-01-30T11:59:44;0.50;;;0.50;;
77822;SDS011;67013;49.730;17.292;2024-01-30T12:02:16;0.40;;;0.40;;
77822;SDS011;67013;49.730;17.292;2024-01-30T12:04:46;0.40;;;0.40;;
77822;SDS011;67013;49.730;17.292;2024-01-30T12:07:15;0.40;;;0.40;;
77822;SDS011;67013;49.730;17.292;2024-01-30T12:09:53;0.20;;;0.20;;
77822;SDS011;67013;49.730;17.292;2024-01-30T12:12:22;0.40;;;0.40;;
77822;SDS011;67013;49.730;17.292;2024-01-30T12:14:53;0.40;;;0.40;;
77822;SDS011;67013;49.730;17.292;2024-01-30T12:17:25;0.30;;;0.30;;
77822;SDS011;67013;49.730;17.292;2024-01-30T12:20:03;0.40;;;0.40;;
77822;SDS011;67013;49.730;17.292;2024-01-30T12:22:35;0.40;;;0.40;;
77822;SDS011;67013;49.730;17.292;2024-01-30T12:25:07;0.30;;;0.30;;
77822;SDS011;67013;49.730;17.292;2024-01-30T12:27:37;0.40;;;0.40;;
77822;SDS011;67013;49.730;17.292;2024-01-30T12:30:08;0.30;;;0.30;;
77822;SDS011;67013;49.730;17.292;2024-01-30T12:32:40;0.30;;;0.30;;
77822;SDS011;67013;49.730;17.292;2024-01-30T12:35:11;0.40;;;0.40;;
77822;SDS011;67013;49.730;17.292;2024-01-30T12:37:42;0.40;;;0.40;;
77822;SDS011;67013;49.730;17.292;2024-01-30T12:40:13;0.30;;;0.30;;
77822;SDS011;67013;49.730;17.292;2024-01-30T12:42:43;0.30;;;0.30;;
77822;SDS011;67013;49.730;17.292;2024-01-30T12:45:16;0.30;;;0.30;;
77822;SDS011;67013;49.730;17.292;2024-01-30T12:50:16;0.30;;;0.30;;
77822;SDS011;67013;49.730;17.292;2024-01-30T12:52:45;0.40;;;0.40;;
77822;SDS011;67013;49.730;17.292;2024-01-30T12:55:15;0.40;;;0.40;;
77822;SDS011;67013;49.730;17.292;2024-01-30T12:57:45;0.30;;;0.30;;
77822;SDS011;67013;49.730;17.292;2024-01-30T13:00:14;0.40;;;0.40;;
77822;SDS011;67013;49.730;17.292;2024-01-30T13:02:44;0.40;;;0.40;;
77822;SDS011;67013;49.730;17.292;2024-01-30T13:05:15;0.40;;;0.40;;
77822;SDS011;67013;49.730;17.292;2024-01-30T13:07:45;0.50;;;0.50;;
77822;SDS011;67013;49.730;17.292;2024-01-30T13:10:14;0.50;;;0.40;;
77822;SDS011;67013;49.730;17.292;2024-01-30T13:12:44;0.50;;;0.50;;
77822;SDS011;67013;49.730;17.292;2024-01-30T13:15:13;0.30;;;0.30;;
77822;SDS011;67013;49.730;17.292;2024-01-30T13:17:44;0.40;;;0.40;;
77822;SDS011;67013;49.730;17.292;2024-01-30T13:20:15;0.40;;;0.40;;
77822;SDS011;67013;49.730;17.292;2024-01-30T13:22:47;0.50;;;0.40;;
77822;SDS011;67013;49.730;17.292;2024-01-30T13:25:17;0.30;;;0.30;;
77822;SDS011;67013;49.730;17.292;2024-01-30T13:27:46;0.50;;;0.50;;
77822;SDS011;67013;49.730;17.292;2024-01-30T13:30:16;0.40;;;0.40;;
77822;SDS011;67013;49.730;17.292;2024-01-30T13:32:46;0.40;;;0.40;;
77822;SDS011;67013;49.730;17.292;2024-01-30T13:35:15;0.50;;;0.50;;
77822;SDS011;67013;49.730;17.292;2024-01-30T13:37:45;0.40;;;0.40;;
77822;SDS011;67013;49.730;17.292;2024-01-30T13:40:15;0.60;;;0.60;;
77822;SDS011;67013;49.730;17.292;2024-01-30T13:42:45;0.30;;;0.30;;
77822;SDS011;67013;49.730;17.292;2024-01-30T13:45:15;0.40;;;0.40;;
77822;SDS011;67013;49.730;17.292;2024-01-30T13:47:44;0.60;;;0.60;;
77822;SDS011;67013;49.730;17.292;2024-01-30T13:50:14;0.40;;;0.40;;
77822;SDS011;67013;49.730;17.292;2024-01-30T13:52:43;0.30;;;0.30;;
77822;SDS011;67013;49.730;17.292;2024-01-30T13:55:13;0.50;;;0.40;;
77822;SDS011;67013;49.730;17.292;2024-01-30T13:57:43;0.50;;;0.40;;
77822;SDS011;67013;49.730;17.292;2024-01-30T14:00:13;0.40;;;0.40;;
77822;SDS011;67013;49.730;17.292;2024-01-30T14:02:44;0.40;;;0.40;;
77822;SDS011;67013;49.730;17.292;2024-01-30T14:05:14;0.30;;;0.30;;
77822;SDS011;67013;49.730;17.292;2024-01-30T14:07:44;0.40;;;0.40;;
77822;SDS011;67013;49.730;17.292;2024-01-30T14:10:14;0.40;;;0.40;;
77822;SDS011;67013;49.730;17.292;2024-01-30T14:12:44;0.30;;;0.30;;
77822;SDS011;67013;49.730;17.292;2024-01-30T14:15:14;0.40;;;0.40;;
77822;SDS011;67013;49.730;17.292;2024-01-30T14:17:44;0.50;;;0.40;;
77822;SDS011;67013;49.730;17.292;2024-01-30T14:20:15;0.40;;;0.40;;
77822;SDS011;67013;49.730;17.292;2024-01-30T14:22:45;0.40;;;0.40;;
77822;SDS011;67013;49.730;17.292;2024-01-30T14:25:15;0.30;;;0.30;;
77822;SDS011;67013;49.730;17.292;2024-01-30T14:27:44;0.40;;;0.40;;
77822;SDS011;67013;49.730;17.292;2024-01-30T14:30:14;0.30;;;0.30;;
77822;SDS011;67013;49.730;17.292;2024-01-30T14:32:44;0.50;;;0.50;;
77822;SDS011;67013;49.730;17.292;2024-01-30T14:35:15;0.40;;;0.40;;
77822;SDS011;67013;49.730;17.292;2024-01-30T14:37:46;0.50;;;0.50;;
77822;SDS011;67013;49.730;17.292;2024-01-30T14:40:15;0.60;;;0.60;;
77822;SDS011;67013;49.730;17.292;2024-01-30T14:42:45;0.60;;;0.60;;
77822;SDS011;67013;49.730;17.292;2024-01-30T14:45:15;0.50;;;0.50;;
77822;SDS011;67013;49.730;17.292;2024-01-30T14:47:45;0.30;;;0.30;;
77822;SDS011;67013;49.730;17.292;2024-01-30T14:50:15;0.50;;;0.50;;
77822;SDS011;67013;49.730;17.292;2024-01-30T14:52:45;0.40;;;0.40;;
77822;SDS011;67013;49.730;17.292;2024-01-30T14:55:15;0.40;;;0.40;;
77822;SDS011;67013;49.730;17.292;2024-01-30T14:57:45;0.60;;;0.50;;